Dorchester, MA (02124)

12:42 PM EDT on September 01, 2015 (GMT -0400)
Milton Hill | | Change Station
CLOSE
Current Station
Personal Weather Station
Location: Milton, MA
Elevation: 113 ft
Nearby Weather Stations

Elev 113 ft 42.26 °N, 71.06 °W | Updated 9 minutes ago

Partly Cloudy
Partly Cloudy
79.4 °F
Feels Like 81 °F
N
1.0
Wind Variable Wind from North
Gusts 3.0 mph

Today
High -- | Low -- °F
--% Chance of Precip.
Yesterday
High -- | Low -- °F
Precip. -- in
6:09 AM 7:18 PM
Waning Gibbous, 88% visible
Pressure 30.06 in
Visibility 10.0 miles
Clouds Few 4000 ft
Heat Index 81 °F
Dew Point 61 °F
Humidity 53%
Rainfall 0.00 in
Snow Depth Not available.
UV 8 out of 12
Pollen 9.10 out of 12
Air Quality Not available.
Flu Activity Not available.
METAR KBOS 011554Z 13010KT 10SM FEW040 25/17 A3006 RMK AO2 SLP177 T02500167
Pressure 30.06 in
Visibility 10.0 miles
Clouds Few 4000 ft
Heat Index 81 °F
Dew Point 61 °F
Humidity 53%
Rainfall 0.00 in
Snow Depth Not available.
UV 8 out of 12
Pollen 9.10 out of 12
Air Quality Not available.
Flu Activity Not available.
METAR KBOS 011554Z 13010KT 10SM FEW040 25/17 A3006 RMK AO2 SLP177 T02500167

10-Day Weather Forecast

×

Almanac

Astronomy

Sep. 01, 2015 Rise Set
Actual Time
Civil Twilight
Nautical Twilight
Astronomical Twilight
Moon
Length of Visible Light
Length of Day
Tomorrow will be .
, % of the Moon is Illuminated

Today's Extremes

State Highs State Lows

Community

WunderPhotos

Upload Photos

1,851,555 photos uploaded!

WunderBlogs® & News

Nearby

Air Quality

  Air Quality AQ Index Pollutant
Not available.

Snow Depth

Station Depth Elevation

Earthquake Activity

City Distance Mag. Time & Date
Minimum magnitude displayed is 2.5.

Coastal Water Temperatures

Place Temperature

Stations

Nearby Weather Stations

Station Location Temp. Windchill Dew Point Humidity Wind Precip. Elev Updated Type